Time;durP1;ratioP1;P1;durP2;ratioP2;P2;SDS_P1;SDS_P2;PMS_P1;PMS_P2;Temp;Humidity;BMP_temperature;BMP_pressure;BME280_temperature;BME280_humidity;BME280_pressure;Samples;Min_cycle;Max_cycle;Signal;HPM_P1;HPM_P2
2022/03/20 00:00:26;;;;;;;19.83;18.03;;;;;;;6.09;62.11;99834.41;5035503;27;102814;-69
2022/03/20 00:02:55;;;;;;;18.90;17.33;;;;;;;6.07;62.49;99829.19;5039695;27;102806;-70
2022/03/20 00:05:25;;;;;;;20.77;18.88;;;;;;;5.77;63.46;99833.75;5040499;27;104130;-70
2022/03/20 00:07:53;;;;;;;20.02;18.33;;;;;;;5.85;63.33;99836.13;5044099;27;103214;-69
2022/03/20 00:10:23;;;;;;;23.07;20.97;;;;;;;5.27;64.00;99837.22;5038947;27;102506;-69
2022/03/20 00:12:53;;;;;;;24.73;22.52;;;;;;;4.37;67.38;99830.47;5017694;27;103850;-70
2022/03/20 00:15:21;;;;;;;20.08;18.38;;;;;;;5.00;66.15;99828.50;5040520;27;103599;-70
2022/03/20 00:17:49;;;;;;;21.17;19.27;;;;;;;5.51;63.76;99827.66;5035902;27;103254;-69
2022/03/20 00:20:17;;;;;;;15.93;14.57;;;;;;;5.82;63.12;99831.81;5037203;27;102813;-69
2022/03/20 00:22:46;;;;;;;23.40;21.20;;;;;;;4.40;66.27;99840.84;5020124;27;102885;-69
2022/03/20 00:25:14;;;;;;;22.33;20.23;;;;;;;4.72;66.86;99822.41;5018225;27;105669;-70
2022/03/20 00:27:42;;;;;;;18.95;17.25;;;;;;;5.21;65.12;99822.56;5041726;27;103196;-69
2022/03/20 00:30:12;;;;;;;19.65;17.95;;;;;;;5.60;63.56;99819.50;5017889;27;102622;-69
2022/03/20 00:32:41;;;;;;;22.08;19.95;;;;;;;5.57;63.37;99819.59;5036892;27;102799;-69
2022/03/20 00:35:09;;;;;;;24.20;21.80;;;;;;;4.06;66.46;99836.59;5036078;27;104051;-70
2022/03/20 00:37:37;;;;;;;21.03;19.03;;;;;;;4.56;66.23;99826.41;5014377;27;104152;-70
2022/03/20 00:40:08;;;;;;;22.25;20.30;;;;;;;4.88;64.96;99813.19;5031995;27;103905;-70
2022/03/20 00:42:36;;;;;;;17.38;15.77;;;;;;;5.36;63.33;99817.72;5039727;27;103722;-70
2022/03/20 00:45:05;;;;;;;20.95;19.05;;;;;;;5.34;62.19;99811.66;5033637;27;104028;-70
2022/03/20 00:47:33;;;;;;;21.30;19.30;;;;;;;5.21;62.34;99809.47;5035873;27;103335;-70
2022/03/20 00:50:01;;;;;;;21.63;19.63;;;;;;;5.33;62.22;99808.22;5036646;27;102809;-70
2022/03/20 00:52:32;;;;;;;18.48;16.88;;;;;;;5.30;62.79;99813.56;5016902;27;104370;-70
2022/03/20 00:55:02;;;;;;;19.37;17.47;;;;;;;5.53;61.62;99808.34;5036715;27;105453;-70
2022/03/20 00:57:32;;;;;;;20.98;18.90;;;;;;;4.68;62.22;99805.09;5021937;27;104078;-70
2022/03/20 00:59:59;;;;;;;20.35;18.55;;;;;;;4.43;62.88;99805.00;5037225;27;102623;-70
2022/03/20 01:02:30;;;;;;;21.10;19.13;;;;;;;4.42;62.72;99810.25;5027725;27;102889;-70
2022/03/20 01:04:58;;;;;;;19.67;17.77;;;;;;;4.63;62.00;99807.00;5021821;27;103693;-70
2022/03/20 01:07:26;;;;;;;18.10;16.33;;;;;;;5.05;59.88;99800.38;5040715;27;103250;-70
2022/03/20 01:09:54;;;;;;;19.08;17.27;;;;;;;5.13;59.93;99798.41;5040157;27;102568;-70
2022/03/20 01:12:22;;;;;;;15.38;14.02;;;;;;;5.58;59.99;99808.22;5038380;27;103877;-70
2022/03/20 01:14:51;;;;;;;15.10;13.80;;;;;;;5.80;59.75;99801.31;5041667;27;104075;-70
2022/03/20 01:17:19;;;;;;;18.90;17.20;;;;;;;5.62;61.13;99807.19;5035730;27;103222;-70
2022/03/20 01:19:47;;;;;;;17.67;16.17;;;;;;;5.70;61.59;99794.66;5036938;27;102886;-70
2022/03/20 01:22:15;;;;;;;15.20;13.90;;;;;;;5.87;61.38;99797.56;5034121;27;103038;-70
2022/03/20 01:24:43;;;;;;;22.00;20.00;;;;;;;5.56;62.66;99802.16;5037657;27;104268;-70
2022/03/20 01:27:12;;;;;;;23.53;21.20;;;;;;;4.90;65.33;99789.56;5038800;27;103216;-70
2022/03/20 01:29:40;;;;;;;22.17;20.15;;;;;;;5.08;65.46;99795.03;5035755;27;102630;-70
2022/03/20 01:32:10;;;;;;;16.87;15.47;;;;;;;5.59;63.28;99791.56;5040180;27;102715;-67
2022/03/20 01:34:39;;;;;;;15.80;14.40;;;;;;;5.85;63.14;99788.91;5017957;27;103864;-70
2022/03/20 01:37:07;;;;;;;20.15;18.42;;;;;;;5.59;63.94;99781.94;5042715;27;103175;-70
2022/03/20 01:39:35;;;;;;;21.92;19.92;;;;;;;5.39;65.28;99783.56;5024515;27;103081;-70
2022/03/20 01:42:05;;;;;;;16.67;15.27;;;;;;;5.75;64.28;99782.25;5020706;27;103082;-70
2022/03/20 01:44:34;;;;;;;21.57;19.60;;;;;;;5.59;64.33;99776.69;5034399;27;103955;-70
2022/03/20 01:47:02;;;;;;;17.70;16.20;;;;;;;5.60;64.77;99777.56;5040726;27;103315;-70
2022/03/20 01:49:31;;;;;;;21.45;19.48;;;;;;;5.23;64.19;99775.34;5042612;27;102631;-70
2022/03/20 01:52:11;;;;;;;16.23;14.83;;;;;;;5.65;62.87;99773.00;5041586;27;102926;-70
2022/03/20 01:54:41;;;;;;;15.57;14.15;;;;;;;5.88;61.75;99772.22;5013446;27;104149;-70
2022/03/20 01:57:12;;;;;;;15.00;13.70;;;;;;;5.94;60.59;99772.00;5018557;27;103246;-70
2022/03/20 01:59:40;;;;;;;16.67;15.18;;;;;;;5.99;59.69;99765.66;5032818;27;103076;-70
2022/03/20 02:02:07;;;;;;;20.08;18.27;;;;;;;5.69;59.36;99766.75;5038811;27;103969;-70
2022/03/20 02:04:40;;;;;;;21.42;19.48;;;;;;;4.90;62.08;99759.00;5040857;27;104642;-70
2022/03/20 02:07:09;;;;;;;21.27;19.27;;;;;;;4.14;63.59;99755.28;5036824;27;103185;-70
2022/03/20 02:09:37;;;;;;;19.67;17.88;;;;;;;4.31;62.55;99758.25;5035685;27;103230;-70
2022/03/20 02:12:06;;;;;;;17.73;16.10;;;;;;;4.85;60.55;99766.16;5036970;27;104003;-69
2022/03/20 02:14:37;;;;;;;17.58;15.98;;;;;;;5.21;59.24;99759.69;5018334;27;104154;-70
2022/03/20 02:17:06;;;;;;;17.23;15.73;;;;;;;5.43;57.99;99754.56;5042637;27;103248;-70
2022/03/20 02:19:35;;;;;;;14.85;13.45;;;;;;;5.68;58.28;99763.25;5016305;27;103407;-70
2022/03/20 02:22:05;;;;;;;19.45;17.75;;;;;;;5.18;59.38;99757.16;5042106;27;103803;-67
2022/03/20 02:24:38;;;;;;;18.10;16.50;;;;;;;5.53;58.43;99762.97;5036775;27;103564;-67
2022/03/20 02:27:09;;;;;;;17.25;15.65;;;;;;;5.68;58.38;99755.41;5026709;27;103883;-67
2022/03/20 02:29:37;;;;;;;19.27;17.35;;;;;;;5.66;57.72;99756.38;5039006;27;102684;-67
2022/03/20 02:32:07;;;;;;;20.08;18.27;;;;;;;5.40;58.87;99751.19;5037295;27;102976;-67
2022/03/20 02:34:35;;;;;;;20.63;18.63;;;;;;;4.87;59.45;99743.38;5044308;27;103887;-67
2022/03/20 02:37:06;;;;;;;20.60;18.50;;;;;;;4.33;61.76;99745.13;5037818;27;103877;-67
2022/03/20 02:39:34;;;;;;;20.20;18.30;;;;;;;4.31;61.98;99747.78;5039488;27;102650;-67
2022/03/20 02:42:04;;;;;;;20.60;18.70;;;;;;;3.99;63.08;99732.19;5040302;27;103976;-67
2022/03/20 02:44:54;;;;;;;20.90;18.80;;;;;;;3.90;63.17;99741.16;5025429;27;104221;-67
2022/03/20 02:47:24;;;;;;;20.13;18.23;;;;;;;4.08;62.40;99732.78;5042300;27;103167;-67
2022/03/20 02:49:55;;;;;;;20.98;19.00;;;;;;;3.92;62.83;99734.16;5038182;27;102645;-67
2022/03/20 02:52:28;;;;;;;21.17;19.17;;;;;;;3.83;63.05;99734.41;5041313;27;102945;-67
2022/03/20 02:55:00;;;;;;;20.00;18.08;;;;;;;4.25;62.38;99737.50;5021857;27;104247;-67
2022/03/20 02:57:29;;;;;;;19.88;18.02;;;;;;;4.22;60.83;99736.75;5034981;27;103183;-67
2022/03/20 03:00:00;;;;;;;20.52;18.42;;;;;;;4.31;61.13;99736.47;5038525;27;102596;-67
2022/03/20 03:02:30;;;;;;;20.73;18.63;;;;;;;4.31;60.90;99732.09;5022109;27;103585;-67
2022/03/20 03:04:59;;;;;;;20.30;18.30;;;;;;;4.35;60.95;99738.94;5015232;27;103808;-67
2022/03/20 03:07:30;;;;;;;20.20;18.33;;;;;;;4.24;61.32;99737.56;5041731;27;103581;-67
2022/03/20 03:12:45;;;;;;;20.50;18.50;;;;;;;4.09;61.88;99733.66;5038032;27;103967;-67
2022/03/20 03:15:22;;;;;;;19.75;17.67;;;;;;;4.32;61.58;99738.19;5039092;27;103978;-67
2022/03/20 03:17:50;;;;;;;16.10;14.60;;;;;;;5.04;59.47;99741.06;5037730;27;103221;-67
2022/03/20 03:20:20;;;;;;;18.90;17.10;;;;;;;5.31;58.44;99741.00;5038556;27;103291;-67
2022/03/20 03:22:52;;;;;;;18.50;16.80;;;;;;;5.32;58.56;99745.34;5021127;27;104227;-67
2022/03/20 03:25:19;;;;;;;18.30;16.50;;;;;;;5.60;58.00;99746.09;5036908;27;103293;-67
2022/03/20 03:27:47;;;;;;;18.80;16.98;;;;;;;5.72;57.51;99748.28;5039255;27;103355;-67
2022/03/20 03:30:15;;;;;;;15.07;13.77;;;;;;;5.87;57.56;99745.13;5018231;27;103030;-67
2022/03/20 03:32:46;;;;;;;15.55;14.15;;;;;;;6.02;57.26;99748.94;5046759;27;103605;-67
2022/03/20 03:38:03;;;;;;;19.55;17.75;;;;;;;5.40;58.88;99748.56;5023461;27;102845;-67
2022/03/20 03:40:31;;;;;;;16.30;14.80;;;;;;;5.87;58.28;99754.78;5046141;27;102946;-67
2022/03/20 03:43:00;;;;;;;18.80;17.10;;;;;;;5.86;58.16;99759.16;5039887;27;103781;-67
2022/03/20 03:45:29;;;;;;;19.90;18.10;;;;;;;5.52;58.18;99753.38;5037202;27;103257;-67
2022/03/20 03:47:57;;;;;;;20.73;18.75;;;;;;;5.07;59.64;99755.81;5018475;27;104392;-67
2022/03/20 03:50:27;;;;;;;19.23;17.43;;;;;;;5.20;60.19;99750.09;5039994;27;103493;-67
2022/03/20 03:52:55;;;;;;;20.37;18.40;;;;;;;4.79;61.22;99752.38;5040998;27;103847;-67
2022/03/20 03:55:25;;;;;;;20.75;18.75;;;;;;;4.62;62.19;99755.56;5041151;27;103963;-67
2022/03/20 03:57:53;;;;;;;19.23;17.40;;;;;;;5.33;60.12;99757.56;5036008;27;103615;-67
2022/03/20 04:00:21;;;;;;;19.90;18.00;;;;;;;5.31;59.83;99754.09;5020278;27;102901;-67
2022/03/20 04:02:50;;;;;;;19.90;18.00;;;;;;;5.00;59.80;99749.91;5041960;27;102566;-67
2022/03/20 04:05:18;;;;;;;20.35;18.45;;;;;;;4.82;61.29;99752.28;5022387;27;104852;-67
2022/03/20 04:07:47;;;;;;;20.55;18.63;;;;;;;4.59;61.91;99753.03;5040455;27;103219;-67
2022/03/20 04:10:16;;;;;;;20.23;18.23;;;;;;;4.87;60.90;99743.38;5037634;27;102662;-67
2022/03/20 04:12:46;;;;;;;20.87;18.67;;;;;;;4.86;60.97;99757.38;5020237;27;104062;-67
2022/03/20 04:15:17;;;;;;;21.37;19.37;;;;;;;4.62;61.09;99742.47;5038861;27;104499;-67
2022/03/20 04:17:45;;;;;;;20.02;18.08;;;;;;;4.83;61.38;99747.00;5037272;27;103967;-67
2022/03/20 04:20:13;;;;;;;17.80;15.00;;;;;;;4.62;62.28;99742.47;5036176;27;102706;-67
2022/03/20 04:23:42;;;;;;;19.70;15.13;;;;;;;4.17;64.16;99738.66;5041609;27;103709;-67
2022/03/20 04:25:33;;;;;;;16.83;15.25;;;;;;;5.23;61.36;99744.75;5035124;27;103298;-67
2022/03/20 04:28:02;;;;;;;15.33;13.67;;;;;;;5.09;62.16;99743.50;5027271;27;103181;-67
2022/03/20 04:30:33;;;;;;;16.23;12.37;;;;;;;5.02;62.32;99742.88;5034989;27;102646;-67
2022/03/20 04:33:01;;;;;;;15.50;13.20;;;;;;;4.88;64.16;99747.72;5036763;27;103926;-67
2022/03/20 04:35:32;;;;;;;17.03;14.53;;;;;;;4.73;64.64;99747.34;5021083;27;104058;-67
2022/03/20 04:38:04;;;;;;;14.27;11.73;;;;;;;4.73;64.19;99750.81;5037614;27;104175;-67
2022/03/20 04:40:33;;;;;;;14.47;12.93;;;;;;;4.74;64.07;99757.78;5042840;27;102575;-67
2022/03/20 04:43:02;;;;;;;17.73;15.93;;;;;;;4.53;64.88;99755.81;5022751;27;102969;-67
2022/03/20 04:45:31;;;;;;;18.20;15.77;;;;;;;4.24;65.80;99763.72;5043711;27;103656;-67
2022/03/20 04:59:03;;;;;;;19.97;16.23;;;;;;;4.34;64.91;99760.78;5002088;27;103087;-67
2022/03/20 05:01:33;;;;;;;18.80;16.23;;;;;;;4.40;64.11;99768.44;5044700;27;102704;-67
2022/03/20 05:04:01;;;;;;;19.27;17.20;;;;;;;4.12;65.60;99761.47;5041606;27;104033;-67
2022/03/20 05:06:28;;;;;;;18.17;16.07;;;;;;;4.33;65.28;99771.28;5017295;27;104246;-68
2022/03/20 05:13:19;;;;;;;19.07;16.37;;;;;;;4.44;65.80;99767.44;5035063;27;103186;-67
2022/03/20 05:14:32;;;;;;;19.57;17.57;;;;;;;4.40;65.72;99767.59;5040383;27;103519;-67
2022/03/20 05:17:05;;;;;;;23.07;17.30;;;;;;;4.39;65.14;99778.94;5032834;27;103751;-67
2022/03/20 05:19:34;;;;;;;21.07;16.67;;;;;;;4.35;65.39;99769.50;5036541;27;103234;-67
2022/03/20 05:22:02;;;;;;;19.37;17.17;;;;;;;4.33;66.05;99760.81;5041754;27;102735;-67
2022/03/20 05:24:29;;;;;;;21.70;17.47;;;;;;;4.36;66.00;99760.72;5035712;27;103660;-67
2022/03/20 05:26:58;;;;;;;20.77;17.40;;;;;;;4.37;66.04;99778.16;5039529;27;103909;-67
2022/03/20 05:29:26;;;;;;;17.47;14.93;;;;;;;4.58;64.84;99782.72;5041184;27;103179;-67
2022/03/20 05:31:56;;;;;;;16.17;14.47;;;;;;;4.64;64.94;99777.28;5032494;27;102896;-67
2022/03/20 05:34:25;;;;;;;22.03;17.93;;;;;;;4.51;65.20;99786.44;5043832;27;103729;-67
2022/03/20 05:36:53;;;;;;;16.90;15.10;;;;;;;4.56;64.80;99779.28;5040531;27;104037;-67
2022/03/20 05:39:21;;;;;;;21.53;16.87;;;;;;;4.76;65.73;99781.28;5017188;27;103217;-67
2022/03/20 05:41:52;;;;;;;22.63;18.23;;;;;;;4.43;66.67;99786.69;5044198;27;102939;-67
2022/03/20 05:44:21;;;;;;;21.30;18.47;;;;;;;4.35;66.78;99786.03;5040442;27;103825;-67
2022/03/20 05:46:50;;;;;;;21.93;18.17;;;;;;;4.48;66.42;99782.16;5031793;27;103642;-67
2022/03/20 05:49:21;;;;;;;19.57;16.63;;;;;;;4.52;66.15;99790.78;5036208;27;103028;-67
2022/03/20 05:51:51;;;;;;;20.20;17.97;;;;;;;4.61;64.92;99798.31;5024607;27;102691;-67
2022/03/20 05:54:18;;;;;;;20.40;17.80;;;;;;;4.70;65.08;99798.03;5041798;27;102774;-68
2022/03/20 05:59:34;;;;;;;22.73;17.73;;;;;;;4.86;65.00;99804.50;5025818;27;104145;-66
2022/03/20 06:02:02;;;;;;;22.07;18.13;;;;;;;4.98;65.10;99793.66;5038801;27;102852;-67
2022/03/20 06:04:31;;;;;;;21.87;18.77;;;;;;;5.00;64.61;99807.53;5047807;27;103753;-67
2022/03/20 06:07:00;;;;;;;19.37;16.43;;;;;;;5.14;63.74;99807.94;5043962;27;104023;-69
2022/03/20 06:09:28;;;;;;;21.93;17.80;;;;;;;5.04;63.87;99803.94;5039513;27;103220;-69
2022/03/20 06:11:56;;;;;;;21.40;19.10;;;;;;;5.07;64.64;99813.44;5038430;27;102500;-69
2022/03/20 06:14:29;;;;;;;19.73;16.80;;;;;;;5.36;63.30;99817.72;5036214;27;102723;-69
2022/03/20 06:16:59;;;;;;;21.17;17.97;;;;;;;5.68;63.25;99817.47;5037389;27;104177;-69
2022/03/20 06:19:28;;;;;;;21.60;19.10;;;;;;;5.59;64.26;99808.16;5038752;27;103248;-69
2022/03/20 06:21:59;;;;;;;22.90;19.30;;;;;;;5.56;62.79;99815.25;5042342;27;102648;-67
2022/03/20 06:24:26;;;;;;;19.90;16.90;;;;;;;5.82;63.28;99816.06;5046593;27;102670;-67
2022/03/20 06:26:54;;;;;;;21.17;18.53;;;;;;;5.99;62.94;99818.13;5046866;27;103264;-66
2022/03/20 06:29:22;;;;;;;21.70;19.43;;;;;;;5.77;63.94;99818.00;5044888;27;103310;-67
2022/03/20 06:31:53;;;;;;;22.83;19.50;;;;;;;5.79;63.12;99824.06;5040865;27;102688;-66
2022/03/20 06:34:24;;;;;;;21.73;18.20;;;;;;;5.85;62.66;99820.38;5021829;27;103142;-70
2022/03/20 06:36:55;;;;;;;24.30;19.40;;;;;;;5.91;62.80;99820.19;5021718;27;104394;-69
2022/03/20 06:39:25;;;;;;;21.80;19.50;;;;;;;6.01;63.10;99826.78;5023230;27;102778;-67
2022/03/20 06:41:52;;;;;;;20.00;17.70;;;;;;;6.21;62.16;99824.28;5021350;27;102555;-67
2022/03/20 06:44:21;;;;;;;23.50;19.43;;;;;;;6.15;61.03;99827.16;5022371;27;102669;-66
2022/03/20 06:46:49;;;;;;;21.77;17.80;;;;;;;6.38;61.04;99832.41;5038629;27;103230;-67
2022/03/20 06:49:18;;;;;;;18.57;16.57;;;;;;;6.64;61.01;99823.53;5043044;27;103380;-67
2022/03/20 06:51:46;;;;;;;20.20;18.10;;;;;;;6.85;60.64;99833.19;5035677;27;102734;-66
2022/03/20 06:54:14;;;;;;;20.60;17.03;;;;;;;6.98;60.46;99828.31;5022391;27;102953;-67
2022/03/20 06:56:43;;;;;;;24.10;19.60;;;;;;;7.00;59.68;99826.47;5039638;27;103213;-67
2022/03/20 06:59:14;;;;;;;22.50;19.00;;;;;;;7.07;58.81;99838.47;5034047;27;103194;-67
2022/03/20 07:01:42;;;;;;;23.23;19.60;;;;;;;7.09;58.28;99836.63;5040223;27;102552;-66
2022/03/20 07:04:10;;;;;;;24.00;20.23;;;;;;;7.03;58.33;99842.13;5031369;27;103138;-67
2022/03/20 07:06:38;;;;;;;21.83;16.80;;;;;;;7.25;58.36;99848.22;5029400;27;103193;-67
2022/03/20 07:09:06;;;;;;;20.97;17.87;;;;;;;7.44;58.24;99843.06;5036223;27;103280;-65
2022/03/20 07:11:34;;;;;;;21.60;18.87;;;;;;;7.47;57.86;99849.06;5013276;27;102642;-66
2022/03/20 07:14:03;;;;;;;22.03;19.73;;;;;;;7.31;57.59;99853.25;5024372;27;104356;-66
2022/03/20 07:16:33;;;;;;;25.77;20.73;;;;;;;7.34;56.89;99852.25;5049588;27;103295;-67
2022/03/20 07:19:02;;;;;;;21.90;19.60;;;;;;;7.69;57.38;99850.78;5045336;27;104980;-69
2022/03/20 07:21:32;;;;;;;20.70;18.47;;;;;;;7.78;55.75;99858.28;5022210;27;102652;-69
2022/03/20 07:24:02;;;;;;;22.87;20.43;;;;;;;7.76;56.86;99854.84;5040478;27;102628;-70
2022/03/20 07:29:31;;;;;;;21.10;17.80;;;;;;;8.06;55.27;99859.66;5008166;27;103215;-70
2022/03/20 07:32:01;;;;;;;25.73;20.90;;;;;;;8.22;54.64;99865.13;5039164;27;102606;-70
2022/03/20 07:34:29;;;;;;;23.40;20.33;;;;;;;8.28;54.17;99870.13;5027756;27;102777;-70
2022/03/20 07:36:58;;;;;;;23.83;19.93;;;;;;;8.56;53.31;99865.31;5039172;27;104005;-72
2022/03/20 07:39:28;;;;;;;24.33;19.63;;;;;;;8.67;54.09;99868.31;5035392;27;103186;-72
2022/03/20 07:41:59;;;;;;;23.73;20.67;;;;;;;8.78;53.05;99864.34;5037213;27;102513;-71
2022/03/20 07:44:31;;;;;;;21.90;19.50;;;;;;;9.10;52.54;99861.00;5041578;27;102775;-71
2022/03/20 07:47:00;;;;;;;21.47;19.17;;;;;;;9.18;51.71;99869.41;5018973;27;104283;-71
2022/03/20 07:49:28;;;;;;;25.00;19.20;;;;;;;9.22;51.99;99866.56;5040187;27;103432;-72
2022/03/20 07:51:57;;;;;;;20.47;18.30;;;;;;;9.46;51.66;99869.78;5036814;27;102590;-71
2022/03/20 07:54:26;;;;;;;25.77;22.03;;;;;;;9.35;51.30;99871.25;5032347;27;103654;-72
2022/03/20 07:56:54;;;;;;;22.70;19.83;;;;;;;9.86;50.93;99866.84;5039551;27;102977;-72
2022/03/20 07:59:22;;;;;;;23.37;20.90;;;;;;;9.94;50.24;99870.91;5038260;27;103325;-71
2022/03/20 08:01:51;;;;;;;21.50;19.27;;;;;;;10.44;49.60;99862.03;5033401;27;102766;-71
2022/03/20 08:04:23;;;;;;;23.27;20.77;;;;;;;10.43;48.92;99862.13;5037791;27;102732;-72
2022/03/20 08:06:52;;;;;;;22.63;20.33;;;;;;;10.35;49.62;99861.69;5042762;27;104453;-72
2022/03/20 08:09:20;;;;;;;24.00;21.07;;;;;;;10.43;48.34;99848.94;5040092;27;103722;-71
2022/03/20 08:11:48;;;;;;;25.73;21.50;;;;;;;10.74;47.92;99851.63;5017747;27;102801;-72
2022/03/20 08:14:16;;;;;;;23.83;21.33;;;;;;;11.00;48.35;99851.00;5021638;27;102976;-72
2022/03/20 08:16:43;;;;;;;22.90;20.40;;;;;;;11.00;47.35;99864.22;5044485;27;103288;-72
2022/03/20 08:19:16;;;;;;;23.77;20.30;;;;;;;11.20;46.60;99862.28;5045544;27;103195;-72
2022/03/20 08:21:45;;;;;;;24.37;21.77;;;;;;;11.46;46.79;99869.56;5018956;27;102750;-72
2022/03/20 08:24:14;;;;;;;24.17;21.13;;;;;;;11.78;46.37;99871.25;5042685;27;102593;-72
2022/03/20 08:26:42;;;;;;;23.97;21.30;;;;;;;11.91;45.58;99869.56;5039824;27;104062;-72
2022/03/20 08:29:12;;;;;;;23.27;20.83;;;;;;;12.21;45.57;99861.56;5039203;27;103175;-72
2022/03/20 08:31:44;;;;;;;22.03;19.70;;;;;;;12.38;45.76;99860.56;5041442;27;102607;-69
2022/03/20 08:34:15;;;;;;;21.13;18.90;;;;;;;12.60;45.55;99860.94;5032106;27;104018;-69
2022/03/20 08:36:44;;;;;;;25.97;22.10;;;;;;;12.58;44.45;99862.81;5044757;27;103515;-69
2022/03/20 08:39:12;;;;;;;21.53;19.37;;;;;;;12.54;45.51;99859.53;5041131;27;103145;-68
2022/03/20 08:41:43;;;;;;;26.83;24.30;;;;;;;12.73;44.32;99865.38;5017360;27;102692;-69
2022/03/20 08:44:11;;;;;;;26.45;24.02;;;;;;;13.16;43.72;99862.69;5039479;27;104071;-69
2022/03/20 08:46:39;;;;;;;25.55;23.17;;;;;;;13.71;43.28;99863.41;5008468;27;104045;-69
2022/03/20 08:49:07;;;;;;;26.45;23.95;;;;;;;14.03;43.11;99865.69;5039399;27;103232;-69
2022/03/20 08:51:39;;;;;;;26.02;23.63;;;;;;;14.06;42.73;99869.00;5045842;27;102575;-68
2022/03/20 08:54:08;;;;;;;26.85;24.35;;;;;;;13.79;41.38;99878.81;5022088;27;104294;-68
2022/03/20 08:56:37;;;;;;;26.43;24.13;;;;;;;14.52;42.40;99874.66;5038294;27;104036;-69
2022/03/20 08:59:06;;;;;;;26.40;24.00;;;;;;;14.60;41.30;99887.41;5040386;27;103407;-69
2022/03/20 09:01:34;;;;;;;26.07;23.67;;;;;;;14.86;40.93;99881.97;5019551;27;103288;-69
2022/03/20 09:04:02;;;;;;;26.92;24.50;;;;;;;15.00;40.76;99878.31;5033085;27;102895;-70
2022/03/20 09:06:30;;;;;;;26.08;23.77;;;;;;;14.42;41.67;99893.09;5034055;27;103316;-67
2022/03/20 09:08:59;;;;;;;26.40;24.00;;;;;;;15.06;40.92;99891.19;5036795;27;103157;-69
2022/03/20 09:11:27;;;;;;;26.70;24.25;;;;;;;15.12;40.58;99892.56;5033635;27;103682;-69
2022/03/20 09:13:55;;;;;;;28.08;25.48;;;;;;;15.25;39.64;99882.72;5037467;27;103690;-69
2022/03/20 09:19:10;;;;;;;27.75;25.25;;;;;;;15.20;39.85;99893.69;5039508;27;103418;-69
2022/03/20 09:21:39;;;;;;;26.90;24.40;;;;;;;15.31;41.11;99898.25;5037297;27;102892;-70
2022/03/20 09:24:08;;;;;;;27.15;24.75;;;;;;;15.61;39.89;99888.88;5043592;27;104206;-71
2022/03/20 09:26:36;;;;;;;25.98;23.67;;;;;;;16.29;38.86;99884.63;5040715;27;103270;-71
2022/03/20 09:29:04;;;;;;;26.80;24.40;;;;;;;16.51;39.07;99872.16;5038186;27;103476;-70
2022/03/20 09:31:34;;;;;;;27.07;24.67;;;;;;;16.17;39.59;99881.06;5034053;27;102996;-71
2022/03/20 09:34:06;;;;;;;26.25;23.95;;;;;;;16.38;38.63;99876.75;5038063;27;103029;-70
2022/03/20 09:36:35;;;;;;;23.90;22.00;;;;;;;16.82;38.49;99886.63;5016795;27;104415;-70
2022/03/20 09:39:04;;;;;;;24.63;22.43;;;;;;;17.57;37.10;99884.13;5031527;27;104482;-70
2022/03/20 09:41:34;;;;;;;28.13;25.63;;;;;;;16.75;39.84;99880.09;5031927;27;102927;-71
2022/03/20 09:44:05;;;;;;;25.88;23.67;;;;;;;16.02;38.98;99884.94;5032442;27;103965;-70
2022/03/20 09:46:34;;;;;;;25.85;23.65;;;;;;;16.91;39.57;99879.72;5034859;27;103455;-70
2022/03/20 09:49:05;;;;;;;25.45;23.23;;;;;;;17.51;37.48;99879.25;5038412;27;103264;-71
2022/03/20 09:51:35;;;;;;;26.73;24.33;;;;;;;17.69;37.87;99889.28;5022741;27;102998;-71
2022/03/20 09:54:03;;;;;;;26.50;24.20;;;;;;;16.77;37.22;99889.69;5041936;27;102633;-72
2022/03/20 09:56:33;;;;;;;27.00;24.60;;;;;;;16.03;38.06;99899.94;5012838;27;104587;-75
2022/03/20 09:59:01;;;;;;;26.80;24.30;;;;;;;16.07;36.84;99893.41;5039197;27;103191;-75
2022/03/20 10:01:29;;;;;;;27.27;24.90;;;;;;;15.80;38.69;99900.84;5037457;27;102941;-74
2022/03/20 10:04:09;;;;;;;27.83;25.33;;;;;;;14.73;39.04;99913.06;5040009;27;103899;-74
2022/03/20 10:06:38;;;;;;;27.17;24.58;;;;;;;15.74;39.31;99907.47;5020374;27;103896;-74
2022/03/20 10:09:08;;;;;;;23.38;21.38;;;;;;;16.45;38.99;99907.31;5037480;27;102981;-73
2022/03/20 10:11:41;;;;;;;25.13;22.90;;;;;;;17.29;36.87;99901.53;5037089;27;102891;-73
2022/03/20 10:14:11;;;;;;;26.50;24.17;;;;;;;17.50;36.81;99891.75;5035606;27;104248;-74
2022/03/20 10:16:41;;;;;;;24.83;22.63;;;;;;;17.71;37.25;99907.88;5016478;27;104094;-75
2022/03/20 10:19:29;;;;;;;26.85;24.35;;;;;;;16.34;38.31;99903.78;5033247;27;103245;-74
2022/03/20 10:22:01;;;;;;;26.38;23.98;;;;;;;15.69;39.44;99908.78;5037375;27;102596;-74
2022/03/20 10:24:31;;;;;;;26.17;23.77;;;;;;;16.59;38.80;99906.28;5031826;27;103692;-74
2022/03/20 10:27:14;;;;;;;25.88;23.60;;;;;;;15.07;38.93;99911.53;5013414;27;103894;-73
2022/03/20 10:29:52;;;;;;;26.90;24.40;;;;;;;15.05;40.29;99908.09;5043702;27;104474;-77
2022/03/20 10:32:21;;;;;;;26.25;23.92;;;;;;;15.18;40.03;99903.63;5030590;27;102699;-76
2022/03/20 10:34:52;;;;;;;25.30;23.00;;;;;;;15.20;40.76;99907.00;5034715;27;103666;-77
2022/03/20 10:37:42;;;;;;;25.80;23.48;;;;;;;14.88;40.75;99905.78;5017747;27;104460;-75
2022/03/20 10:40:12;;;;;;;26.73;24.33;;;;;;;15.38;41.27;99907.50;5020728;27;104318;-70
2022/03/20 10:42:41;;;;;;;25.88;23.30;;;;;;;15.04;41.67;99917.91;5038087;27;102679;-70
2022/03/20 10:45:11;;;;;;;26.42;24.02;;;;;;;15.41;41.36;99910.75;5031137;27;104655;-70
2022/03/20 10:47:39;;;;;;;24.00;22.00;;;;;;;16.05;40.83;99916.69;5025945;27;105930;-70
2022/03/20 10:50:09;;;;;;;25.48;23.20;;;;;;;16.76;39.47;99913.81;5041608;27;103358;-70
2022/03/20 10:52:38;;;;;;;25.52;23.02;;;;;;;16.14;39.28;99911.47;5035501;27;102692;-70
2022/03/20 10:55:12;;;;;;;25.87;23.37;;;;;;;16.52;39.76;99900.56;5040594;27;103089;-70
2022/03/20 10:57:44;;;;;;;25.15;22.92;;;;;;;16.68;39.81;99903.75;5045065;27;103721;-70
2022/03/20 11:00:14;;;;;;;24.70;22.38;;;;;;;16.61;39.24;99904.34;5026616;27;104106;-69
2022/03/20 11:02:43;;;;;;;23.98;21.67;;;;;;;15.58;40.73;99905.09;5020442;27;102766;-70
2022/03/20 11:05:11;;;;;;;25.15;22.77;;;;;;;15.31;41.17;99900.91;5016419;27;103945;-70
2022/03/20 11:07:39;;;;;;;25.33;22.83;;;;;;;15.87;40.00;99899.41;5035265;27;103390;-71
2022/03/20 11:10:11;;;;;;;23.02;20.92;;;;;;;17.15;38.76;99899.13;5040490;27;103267;-71
2022/03/20 11:12:47;;;;;;;24.90;22.55;;;;;;;16.19;39.31;99897.81;5022738;27;102708;-71
2022/03/20 11:15:18;;;;;;;24.08;21.75;;;;;;;16.98;39.11;99895.13;5038068;27;103494;-70
2022/03/20 11:17:47;;;;;;;21.73;19.75;;;;;;;18.14;38.56;99889.94;5039726;27;104386;-73
2022/03/20 11:20:18;;;;;;;23.37;21.07;;;;;;;17.26;38.07;99885.75;5045443;27;103199;-76
2022/03/20 11:22:48;;;;;;;22.95;20.85;;;;;;;17.43;38.42;99887.91;5026780;27;104086;-72
2022/03/20 11:25:20;;;;;;;22.05;19.88;;;;;;;18.03;38.29;99881.13;5041027;27;104066;-72
2022/03/20 11:27:53;;;;;;;21.05;19.13;;;;;;;17.79;38.38;99889.38;5019371;27;104232;-72
2022/03/20 11:30:27;;;;;;;22.17;20.15;;;;;;;17.70;39.30;99891.00;5026357;27;103139;-70
2022/03/20 11:32:56;;;;;;;21.30;19.23;;;;;;;18.06;38.69;99881.72;5033109;27;102648;-70
2022/03/20 11:35:27;;;;;;;21.70;19.55;;;;;;;17.87;39.06;99887.78;5039727;27;103858;-70
2022/03/20 11:37:58;;;;;;;19.27;17.55;;;;;;;18.34;38.44;99896.25;5010904;27;104189;-70
2022/03/20 11:40:30;;;;;;;20.98;19.08;;;;;;;17.66;38.83;99894.03;5040630;27;103436;-70
2022/03/20 11:43:19;;;;;;;20.90;18.80;;;;;;;18.16;38.62;99876.44;5037049;27;102891;-70
2022/03/20 11:46:28;;;;;;;21.67;19.57;;;;;;;18.37;38.38;99874.59;5017635;27;103519;-69
2022/03/20 11:49:21;;;;;;;23.23;20.83;;;;;;;19.35;37.03;99873.03;5039976;27;103538;-69
2022/03/20 11:51:56;;;;;;;22.65;19.63;;;;;;;19.18;37.50;99868.34;5045172;27;103197;-69
2022/03/20 11:54:48;;;;;;;22.80;20.57;;;;;;;17.94;38.37;99872.91;5037245;27;102628;-70